Time;durP1;ratioP1;P1;durP2;ratioP2;P2;SDS_P1;SDS_P2;PMS_P1;PMS_P2;Temp;Humidity;BMP_temperature;BMP_pressure;BME280_temperature;BME280_humidity;BME280_pressure;Samples;Min_cycle;Max_cycle;Signal;HPM_P1;HPM_P2
2022/04/07 00:00:01;;;;;;;1.27;1.15;;;;;;;13.15;53.10;94051.34;4996971;28;20040;-69
2022/04/07 00:02:26;;;;;;;4.82;1.17;;;;;;;12.85;53.90;94057.16;5031019;28;20096;-69
2022/04/07 00:04:51;;;;;;;1.25;0.98;;;;;;;12.90;53.95;94056.13;5031279;28;20497;-70
2022/04/07 00:07:17;;;;;;;1.70;1.10;;;;;;;12.61;53.87;94027.94;5031255;28;20036;-68
2022/04/07 00:09:42;;;;;;;1.13;1.02;;;;;;;12.65;53.89;94047.50;5031246;28;20022;-69
2022/04/07 00:12:08;;;;;;;1.88;0.90;;;;;;;12.64;54.39;94046.72;5030841;28;20536;-69
2022/04/07 00:14:33;;;;;;;6.07;1.00;;;;;;;12.44;54.26;94008.50;5031271;28;20062;-67
2022/04/07 00:16:59;;;;;;;1.70;1.00;;;;;;;13.07;52.31;94018.38;5031242;28;20036;-69
2022/04/07 00:19:25;;;;;;;1.23;0.85;;;;;;;12.31;54.65;94047.00;5013505;28;20180;-68
2022/04/07 00:21:50;;;;;;;1.02;0.85;;;;;;;12.67;54.13;94055.91;5030622;28;20410;-70
2022/04/07 00:24:16;;;;;;;1.83;1.10;;;;;;;12.76;54.13;94061.88;5031067;28;20115;-68
2022/04/07 00:26:41;;;;;;;1.25;1.05;;;;;;;12.14;54.52;94025.97;5030941;28;20390;-69
2022/04/07 00:29:06;;;;;;;0.70;0.70;;;;;;;12.31;54.52;94054.22;5030848;28;20025;-69
2022/04/07 00:31:41;;;;;;;3.30;1.00;;;;;;;12.30;54.58;94037.44;5030034;28;20474;-69
2022/04/07 00:34:07;;;;;;;1.52;1.10;;;;;;;12.43;54.47;94038.91;5030824;28;20113;-69
2022/04/07 00:36:32;;;;;;;0.80;0.70;;;;;;;12.43;53.74;94012.25;5031024;28;20060;-69
2022/04/07 00:38:58;;;;;;;1.65;1.00;;;;;;;12.57;54.37;94053.75;5030952;28;20107;-70
2022/04/07 00:41:23;;;;;;;0.80;0.80;;;;;;;12.60;52.77;93970.38;5030448;28;20048;-69
2022/04/07 00:43:51;;;;;;;1.52;1.35;;;;;;;13.09;52.79;94039.38;5012990;28;20076;-69
2022/04/07 00:46:17;;;;;;;1.30;1.20;;;;;;;12.65;53.63;94039.50;5030699;28;20064;-68
2022/04/07 00:48:42;;;;;;;1.05;0.98;;;;;;;12.53;54.34;94044.88;5034239;28;20031;-69
2022/04/07 00:51:08;;;;;;;2.05;1.10;;;;;;;12.93;52.43;93984.13;5016674;28;20263;-69
2022/04/07 00:53:33;;;;;;;0.70;0.70;;;;;;;12.98;52.24;93997.19;5034904;28;20030;-69
2022/04/07 00:56:01;;;;;;;1.77;0.77;;;;;;;12.95;53.06;94034.50;5017005;28;20043;-70
2022/04/07 00:58:28;;;;;;;1.27;1.17;;;;;;;13.39;51.35;94005.78;5034633;28;20033;-69
2022/04/07 01:00:54;;;;;;;1.70;0.88;;;;;;;13.30;50.76;93953.66;5034264;28;20025;-69
2022/04/07 01:03:19;;;;;;;1.48;0.70;;;;;;;12.66;52.71;93993.00;5034595;28;20481;-69
2022/04/07 01:05:44;;;;;;;2.17;1.08;;;;;;;12.70;52.96;93994.66;5034656;28;20097;-70
2022/04/07 01:08:10;;;;;;;1.23;1.13;;;;;;;12.68;52.97;93998.75;5034357;28;20030;-69
2022/04/07 01:10:35;;;;;;;3.22;1.17;;;;;;;13.40;52.00;94022.56;5033996;28;20021;-68
2022/04/07 01:13:01;;;;;;;1.00;1.00;;;;;;;12.85;53.30;94013.69;5034490;28;20025;-68
2022/04/07 01:15:26;;;;;;;1.65;1.20;;;;;;;12.60;53.35;93994.41;5016676;28;20084;-69
2022/04/07 01:17:51;;;;;;;1.10;1.10;;;;;;;12.97;52.53;93966.28;5034386;28;20053;-68
2022/04/07 01:20:17;;;;;;;1.10;1.00;;;;;;;13.23;51.47;93946.28;5033784;28;20076;-69
2022/04/07 01:22:45;;;;;;;1.15;1.05;;;;;;;13.97;50.47;93997.00;5034143;28;20398;-69
2022/04/07 01:25:10;;;;;;;2.35;1.02;;;;;;;13.22;51.75;93993.59;5034230;28;20029;-67
2022/04/07 01:27:36;;;;;;;1.42;1.05;;;;;;;13.75;50.38;93983.22;5034115;28;20044;-70
2022/04/07 01:30:10;;;;;;;1.45;1.35;;;;;;;13.71;50.78;93992.31;5033916;28;20508;-70
2022/04/07 01:32:43;;;;;;;0.93;0.93;;;;;;;14.04;50.57;93997.94;5034232;28;20045;-70
2022/04/07 01:35:09;;;;;;;1.65;1.13;;;;;;;13.94;50.37;93987.81;5034360;28;20026;-69
2022/04/07 01:37:36;;;;;;;0.90;0.90;;;;;;;14.39;49.87;93990.94;5016388;28;20029;-69
2022/04/07 01:40:03;;;;;;;1.33;1.23;;;;;;;14.66;48.68;93968.47;5033711;28;20028;-69
2022/04/07 01:42:30;;;;;;;0.93;0.75;;;;;;;14.86;48.38;93960.38;5033601;28;20029;-69
2022/04/07 01:45:00;;;;;;;1.45;1.20;;;;;;;14.84;47.53;93941.97;5016152;28;20116;-69
2022/04/07 01:47:26;;;;;;;1.08;1.00;;;;;;;14.39;48.65;93942.78;5016136;28;20650;-70
2022/04/07 01:50:02;;;;;;;1.02;1.00;;;;;;;14.82;47.80;93953.06;5033961;28;20080;-69
2022/04/07 01:52:29;;;;;;;1.20;1.10;;;;;;;14.59;48.33;93946.16;5033426;28;20470;-68
2022/04/07 01:54:57;;;;;;;1.70;1.10;;;;;;;14.25;49.09;93986.09;5033708;28;20033;-69
2022/04/07 01:57:23;;;;;;;1.10;1.00;;;;;;;13.70;51.16;93982.75;5033707;28;20116;-70
2022/04/07 01:59:53;;;;;;;1.30;1.00;;;;;;;13.47;51.34;93940.69;5032368;28;20042;-69
2022/04/07 02:02:21;;;;;;;0.75;0.75;;;;;;;13.61;51.24;93980.25;5015359;28;20385;-68
2022/04/07 02:05:08;;;;;;;1.50;0.90;;;;;;;13.98;50.01;93951.22;5033480;28;20029;-68
2022/04/07 02:07:36;;;;;;;1.70;1.33;;;;;;;14.44;49.51;93978.03;5033380;28;20528;-68
2022/04/07 02:10:04;;;;;;;1.02;1.00;;;;;;;14.24;49.99;93963.16;5033212;28;20025;-69
2022/04/07 02:12:29;;;;;;;1.10;1.00;;;;;;;14.26;49.37;93940.25;5032478;28;20079;-69
2022/04/07 02:14:59;;;;;;;1.48;1.23;;;;;;;14.29;49.59;93981.59;5032774;28;20033;-68
2022/04/07 02:17:25;;;;;;;1.67;1.13;;;;;;;13.49;52.19;93967.06;5033120;28;20025;-68
2022/04/07 02:19:52;;;;;;;2.20;1.48;;;;;;;13.81;51.55;93962.34;5033152;28;20462;-69
2022/04/07 02:22:19;;;;;;;1.95;1.27;;;;;;;13.49;52.79;93986.53;5032829;28;20037;-69
2022/04/07 02:24:45;;;;;;;2.08;1.30;;;;;;;13.44;53.28;93994.03;5032854;28;20021;-68
2022/04/07 02:27:10;;;;;;;1.45;1.35;;;;;;;13.26;54.16;93942.94;5032971;28;20046;-69
2022/04/07 02:29:36;;;;;;;1.70;1.40;;;;;;;13.05;54.58;93988.59;5033138;28;20105;-69
2022/04/07 02:32:02;;;;;;;1.00;1.00;;;;;;;13.94;52.85;93954.97;5014578;28;20033;-68
2022/04/07 02:34:28;;;;;;;1.52;1.15;;;;;;;14.17;51.69;93977.16;5032946;28;20026;-68
2022/04/07 02:36:53;;;;;;;1.50;1.27;;;;;;;14.04;52.09;93965.84;5032638;28;20032;-68
2022/04/07 02:39:18;;;;;;;1.70;0.93;;;;;;;13.86;52.67;93948.69;5032931;28;20030;-68
2022/04/07 02:41:44;;;;;;;2.22;2.03;;;;;;;13.52;51.93;93897.69;5032172;28;20018;-68
2022/04/07 02:44:09;;;;;;;1.50;1.40;;;;;;;12.78;55.07;93960.13;5032731;28;20013;-69
2022/04/07 02:46:35;;;;;;;1.40;1.30;;;;;;;13.09;54.49;93965.41;5032575;28;20374;-69
2022/04/07 02:49:01;;;;;;;2.20;1.33;;;;;;;13.47;53.86;93978.09;5032844;28;20086;-68
2022/04/07 02:51:26;;;;;;;1.13;1.05;;;;;;;13.68;53.04;93971.66;5032113;28;20021;-69
2022/04/07 02:53:57;;;;;;;1.50;1.40;;;;;;;13.38;53.74;93974.06;5032820;28;20047;-69
2022/04/07 02:56:23;;;;;;;1.40;1.25;;;;;;;12.75;55.25;93961.59;5032527;28;20017;-69
2022/04/07 02:58:49;;;;;;;1.50;1.40;;;;;;;13.03;54.95;93950.78;5032881;28;20026;-69
2022/04/07 03:01:15;;;;;;;1.25;1.15;;;;;;;13.34;53.91;93959.88;5032253;28;20029;-69
2022/04/07 03:03:40;;;;;;;1.23;1.13;;;;;;;12.74;54.85;93952.81;5032899;28;20057;-69
2022/04/07 03:06:06;;;;;;;1.42;1.33;;;;;;;13.03;54.36;93961.47;5032571;28;20065;-69
2022/04/07 03:08:33;;;;;;;1.38;1.10;;;;;;;12.28;55.25;93876.25;5032232;28;20494;-70
2022/04/07 03:10:59;;;;;;;1.10;1.10;;;;;;;12.37;56.01;93954.97;5013598;28;20040;-69
2022/04/07 03:13:24;;;;;;;1.08;1.08;;;;;;;12.24;56.30;93953.50;5032045;28;20026;-69
2022/04/07 03:15:50;;;;;;;1.10;1.00;;;;;;;11.92;57.05;93968.66;5032166;28;20364;-70
2022/04/07 03:18:15;;;;;;;2.08;0.90;;;;;;;11.83;56.88;93963.50;5031996;28;20037;-69
2022/04/07 03:20:40;;;;;;;0.95;0.80;;;;;;;11.67;56.63;93941.34;5013971;28;20027;-69
2022/04/07 03:23:06;;;;;;;0.77;0.77;;;;;;;12.01;54.83;93897.31;5032374;28;20028;-69
2022/04/07 03:25:31;;;;;;;0.77;0.77;;;;;;;12.22;55.32;93959.16;5032004;28;20017;-68
2022/04/07 03:27:57;;;;;;;1.08;0.80;;;;;;;11.87;56.23;93948.34;5031809;28;20044;-69
2022/04/07 03:30:22;;;;;;;0.60;0.60;;;;;;;12.41;54.82;93958.50;5031288;28;20036;-69
2022/04/07 03:32:47;;;;;;;1.02;0.80;;;;;;;11.89;56.47;93954.13;5014234;28;20040;-69
2022/04/07 03:35:13;;;;;;;1.95;0.82;;;;;;;12.38;54.82;93967.16;5031912;28;20032;-69
2022/04/07 03:37:39;;;;;;;0.70;0.70;;;;;;;11.92;55.18;93915.34;5031623;28;20049;-70
2022/04/07 03:40:05;;;;;;;1.08;0.57;;;;;;;11.87;56.36;93942.25;5031412;28;20021;-69
2022/04/07 03:42:30;;;;;;;1.25;0.90;;;;;;;11.49;56.69;93945.38;5013893;28;20025;-68
2022/04/07 03:44:56;;;;;;;1.25;0.60;;;;;;;11.54;56.83;93964.56;5013876;28;20394;-69
2022/04/07 03:47:21;;;;;;;0.82;0.50;;;;;;;11.27;57.38;93925.38;5031473;28;20087;-68
2022/04/07 03:49:46;;;;;;;0.82;0.82;;;;;;;11.54;56.33;93931.84;5031532;28;20067;-69
2022/04/07 03:52:12;;;;;;;1.58;0.95;;;;;;;11.40;57.08;93962.25;5013405;28;20022;-69
2022/04/07 03:54:37;;;;;;;1.08;1.08;;;;;;;11.91;55.47;93948.44;5031541;28;20080;-69
2022/04/07 03:57:03;;;;;;;1.35;0.80;;;;;;;11.67;56.17;93906.72;5031520;28;20122;-69
2022/04/07 03:59:29;;;;;;;0.88;0.82;;;;;;;11.80;56.31;93939.38;5031277;28;20022;-70
2022/04/07 04:01:55;;;;;;;1.05;0.70;;;;;;;11.96;56.07;93943.66;5031109;28;20033;-69
2022/04/07 04:04:22;;;;;;;1.02;0.93;;;;;;;11.70;56.22;93967.28;5031422;28;20044;-69
2022/04/07 04:06:47;;;;;;;0.57;0.52;;;;;;;11.74;55.90;93930.84;5031383;28;20094;-69
2022/04/07 04:09:13;;;;;;;1.23;0.80;;;;;;;11.50;56.81;93931.72;5013612;28;20025;-69
2022/04/07 04:11:38;;;;;;;2.45;0.90;;;;;;;11.86;56.18;93957.47;5030852;28;20029;-68
2022/04/07 04:14:04;;;;;;;0.60;0.60;;;;;;;11.35;57.42;93935.09;5031122;28;20437;-69
2022/04/07 04:16:30;;;;;;;1.30;0.70;;;;;;;10.68;58.35;93934.66;5031119;28;20030;-69
2022/04/07 04:18:56;;;;;;;0.80;0.80;;;;;;;11.09;58.46;93960.22;5031210;28;20072;-69
2022/04/07 04:21:22;;;;;;;0.73;0.73;;;;;;;11.16;58.04;93957.03;5012804;28;20026;-69
2022/04/07 04:23:48;;;;;;;1.25;0.88;;;;;;;11.00;58.12;93942.81;5013136;28;20025;-71
2022/04/07 04:26:13;;;;;;;1.55;0.70;;;;;;;11.01;58.19;93963.03;5031037;28;20039;-70
2022/04/07 04:28:39;;;;;;;1.23;0.70;;;;;;;10.77;58.39;93964.59;5030926;28;20030;-69
2022/04/07 04:31:04;;;;;;;0.50;0.45;;;;;;;10.83;58.73;93975.78;5030739;28;20021;-70
2022/04/07 04:33:30;;;;;;;0.60;0.60;;;;;;;10.00;58.80;93926.41;5013325;28;20026;-69
2022/04/07 04:35:55;;;;;;;0.90;0.70;;;;;;;11.43;55.95;93958.16;5013031;28;20466;-69
2022/04/07 04:38:20;;;;;;;2.28;0.85;;;;;;;11.23;55.78;93977.72;5030823;28;20083;-70
2022/04/07 04:40:46;;;;;;;1.55;0.98;;;;;;;10.58;56.86;93892.56;5030586;28;20075;-69
2022/04/07 04:43:11;;;;;;;0.80;0.70;;;;;;;10.87;57.54;93939.44;5030911;28;20101;-70
2022/04/07 04:45:36;;;;;;;0.88;0.80;;;;;;;10.81;56.71;93924.81;5030493;28;20099;-70
2022/04/07 04:48:02;;;;;;;0.63;0.57;;;;;;;11.07;56.48;93951.03;5030554;28;20033;-70
2022/04/07 04:50:27;;;;;;;0.60;0.60;;;;;;;11.51;54.96;93961.78;5030742;28;20641;-69
2022/04/07 04:52:53;;;;;;;0.60;0.60;;;;;;;11.29;55.13;93942.56;5030719;28;20029;-70
2022/04/07 04:55:19;;;;;;;1.65;0.80;;;;;;;10.79;55.68;93954.38;5013074;28;20033;-69
2022/04/07 04:57:44;;;;;;;1.00;0.50;;;;;;;10.96;56.03;93977.34;5030519;28;20021;-69
2022/04/07 05:00:11;;;;;;;2.67;1.05;;;;;;;10.71;56.74;93949.97;5030393;28;20013;-69
2022/04/07 05:02:39;;;;;;;0.70;0.68;;;;;;;11.56;54.87;93956.22;5030634;28;20028;-69
2022/04/07 05:05:06;;;;;;;1.60;0.60;;;;;;;10.89;55.45;93931.88;5030775;28;20026;-69
2022/04/07 05:07:31;;;;;;;3.40;0.90;;;;;;;11.00;55.56;93950.81;5030679;28;20029;-69
2022/04/07 05:09:56;;;;;;;1.65;0.70;;;;;;;10.70;56.01;93897.88;5030584;28;20029;-70
2022/04/07 05:12:22;;;;;;;1.35;0.88;;;;;;;10.70;55.39;93915.72;5030115;28;20024;-72
2022/04/07 05:14:47;;;;;;;1.80;0.70;;;;;;;10.95;54.71;93933.19;5030508;28;20025;-68
2022/04/07 05:17:12;;;;;;;3.42;1.17;;;;;;;11.19;54.81;93941.13;5030202;28;20025;-69
2022/04/07 05:19:38;;;;;;;0.95;0.70;;;;;;;11.05;55.00;93927.41;5030515;28;20468;-68
2022/04/07 05:22:04;;;;;;;0.73;0.57;;;;;;;10.98;55.33;93956.47;5030110;28;20705;-68
2022/04/07 05:24:29;;;;;;;0.70;0.70;;;;;;;11.88;52.97;93951.81;5030519;28;20033;-70
2022/04/07 05:26:55;;;;;;;0.70;0.68;;;;;;;10.96;54.83;93907.38;5029775;28;20112;-70
2022/04/07 05:29:20;;;;;;;2.38;0.60;;;;;;;10.89;55.21;93929.97;5030302;28;20104;-69
2022/04/07 05:31:46;;;;;;;2.03;0.47;;;;;;;11.38;54.69;93953.84;5011884;28;20017;-73
2022/04/07 05:34:13;;;;;;;3.13;0.80;;;;;;;10.19;56.42;93862.88;5014730;28;20168;-72
2022/04/07 05:36:40;;;;;;;2.53;0.93;;;;;;;10.68;55.79;93913.38;5033540;28;20033;-71
2022/04/07 05:39:05;;;;;;;0.85;0.70;;;;;;;10.56;55.62;93889.47;5016013;28;20048;-72
2022/04/07 05:41:31;;;;;;;2.08;0.82;;;;;;;10.31;55.38;93798.34;5033813;28;20022;-69
2022/04/07 05:43:56;;;;;;;2.28;0.65;;;;;;;10.55;55.47;93885.28;5033762;28;20021;-71
2022/04/07 05:46:22;;;;;;;4.40;0.50;;;;;;;10.99;54.43;93869.44;5033355;28;20022;-72
2022/04/07 05:48:47;;;;;;;0.73;0.65;;;;;;;11.95;54.14;93931.44;5032646;28;20029;-69
2022/04/07 05:51:13;;;;;;;0.82;0.57;;;;;;;11.66;54.54;93940.53;5033827;28;20104;-69
2022/04/07 05:53:39;;;;;;;1.75;0.95;;;;;;;11.82;54.61;93921.19;5033820;28;20032;-69
2022/04/07 05:56:05;;;;;;;2.88;0.90;;;;;;;11.69;54.24;93886.59;5033577;28;20553;-70
2022/04/07 05:58:30;;;;;;;4.05;0.80;;;;;;;11.64;54.82;93910.81;5033564;28;20029;-71
2022/04/07 06:00:55;;;;;;;0.52;0.50;;;;;;;11.38;55.29;93915.81;5032810;28;20493;-70
2022/04/07 06:03:21;;;;;;;1.58;0.73;;;;;;;11.68;54.39;93876.28;5033033;28;20028;-70
2022/04/07 06:05:52;;;;;;;0.70;0.70;;;;;;;11.78;54.55;93881.13;5032264;28;20030;-70
2022/04/07 06:08:20;;;;;;;0.85;0.60;;;;;;;12.22;53.14;93881.84;5033359;28;20382;-70
2022/04/07 06:10:46;;;;;;;3.90;0.82;;;;;;;11.87;54.28;93900.38;5032856;28;20029;-70
2022/04/07 06:13:11;;;;;;;1.15;0.70;;;;;;;12.78;51.76;93896.84;5033378;28;20022;-71
2022/04/07 06:15:39;;;;;;;1.95;0.80;;;;;;;12.97;51.18;93918.25;5033329;28;20466;-70
2022/04/07 06:18:08;;;;;;;1.45;0.90;;;;;;;13.12;50.33;93887.28;5032903;28;20030;-70
2022/04/07 06:20:33;;;;;;;2.78;0.60;;;;;;;12.34;51.71;93889.00;5031825;28;20035;-70
2022/04/07 06:23:00;;;;;;;3.42;0.73;;;;;;;13.05;50.19;93873.00;5033232;28;20022;-70
2022/04/07 06:25:26;;;;;;;0.90;0.73;;;;;;;12.41;52.59;93893.72;5033002;28;20029;-70
2022/04/07 06:27:52;;;;;;;1.45;0.40;;;;;;;12.07;52.22;93837.31;5032836;28;20029;-70
2022/04/07 06:30:20;;;;;;;0.60;0.55;;;;;;;12.21;52.90;93906.97;5032597;28;20109;-71
2022/04/07 06:32:46;;;;;;;0.93;0.50;;;;;;;12.65;51.32;93882.84;5032666;28;20087;-70
2022/04/07 06:35:14;;;;;;;0.85;0.50;;;;;;;12.21;51.87;93852.88;5032057;28;20033;-71
2022/04/07 06:37:54;;;;;;;0.70;0.70;;;;;;;12.34;52.35;93885.56;5014660;28;20032;-70
2022/04/07 06:40:25;;;;;;;2.15;0.60;;;;;;;12.29;51.96;93867.16;5014435;28;20037;-69
2022/04/07 06:42:52;;;;;;;1.42;0.60;;;;;;;12.33;52.01;93894.66;5032737;28;20446;-69
2022/04/07 06:45:18;;;;;;;0.40;0.40;;;;;;;12.46;51.90;93893.47;5032110;28;20467;-69
2022/04/07 06:47:43;;;;;;;0.57;0.50;;;;;;;12.67;50.33;93853.16;5032347;28;20040;-70
2022/04/07 06:50:11;;;;;;;2.63;0.40;;;;;;;13.39;50.62;93882.13;5003555;28;20069;-69
2022/04/07 06:52:36;;;;;;;0.40;0.30;;;;;;;14.19;48.32;93856.47;5012858;28;20018;-70
2022/04/07 06:55:03;;;;;;;0.68;0.40;;;;;;;13.70;49.32;93843.78;5012447;28;20386;-70
2022/04/07 06:57:28;;;;;;;0.38;0.20;;;;;;;13.71;46.70;93834.63;5012590;28;20030;-70
2022/04/07 06:59:54;;;;;;;0.68;0.50;;;;;;;14.06;45.01;93829.13;5012919;28;20013;-69
2022/04/07 07:02:19;;;;;;;0.32;0.20;;;;;;;14.23;44.35;93866.09;4994309;28;20028;-67
2022/04/07 07:04:46;;;;;;;1.35;0.60;;;;;;;12.94;44.97;93740.13;5018206;28;20049;-67
2022/04/07 07:07:11;;;;;;;4.40;0.43;;;;;;;11.80;47.13;93696.94;5032199;28;20693;-67
2022/04/07 07:09:38;;;;;;;4.15;0.40;;;;;;;12.32;45.90;93725.16;5031878;28;20044;-67
2022/04/07 07:12:04;;;;;;;3.42;0.22;;;;;;;12.11;46.00;93670.25;5031787;28;20075;-67
2022/04/07 07:14:29;;;;;;;1.40;0.20;;;;;;;12.69;46.28;93816.22;5032076;28;20446;-67
2022/04/07 07:16:56;;;;;;;0.63;0.20;;;;;;;13.29;45.09;93826.63;5031797;28;20065;-67
2022/04/07 07:19:26;;;;;;;2.33;0.43;;;;;;;13.24;43.59;93718.97;5029224;28;20035;-69
2022/04/07 07:21:53;;;;;;;0.45;0.30;;;;;;;13.15;44.04;93702.38;5011754;28;20092;-65
2022/04/07 07:24:19;;;;;;;1.98;0.35;;;;;;;14.22;42.81;93826.31;5011881;28;20014;-65
2022/04/07 07:26:45;;;;;;;1.85;0.32;;;;;;;13.03;43.25;93667.84;5012002;28;20360;-64
2022/04/07 07:29:10;;;;;;;1.13;0.30;;;;;;;12.40;43.98;93673.53;5012018;28;20035;-65
2022/04/07 07:31:36;;;;;;;2.58;0.20;;;;;;;13.26;44.78;93852.91;5011604;28;20489;-63
2022/04/07 07:34:03;;;;;;;2.45;0.30;;;;;;;12.81;44.10;93757.41;5012013;28;20026;-63
2022/04/07 07:36:29;;;;;;;0.20;0.10;;;;;;;12.25;44.24;93741.78;5030080;28;20382;-69
2022/04/07 07:38:54;;;;;;;0.60;0.25;;;;;;;13.69;42.56;93783.47;5013952;28;20116;-68
2022/04/07 07:41:20;;;;;;;2.38;0.28;;;;;;;13.76;42.83;93826.31;5031097;28;20573;-67
2022/04/07 07:43:45;;;;;;;0.30;0.10;;;;;;;13.11;44.35;93821.69;5031598;28;20029;-67
2022/04/07 07:46:11;;;;;;;2.50;0.20;;;;;;;13.35;43.73;93819.84;5031429;28;20029;-67
2022/04/07 07:48:36;;;;;;;2.78;0.20;;;;;;;13.80;43.09;93795.09;5031410;28;20489;-68
2022/04/07 07:51:02;;;;;;;1.17;0.28;;;;;;;13.52;42.97;93795.38;5030425;28;20030;-68
2022/04/07 07:53:27;;;;;;;0.60;0.25;;;;;;;14.13;42.22;93823.16;5031232;28;20056;-68
2022/04/07 07:55:54;;;;;;;0.98;0.47;;;;;;;14.65;40.82;93749.41;5013633;28;20548;-68
2022/04/07 07:58:20;;;;;;;2.30;0.40;;;;;;;14.49;41.33;93809.19;5030742;28;20116;-68
2022/04/07 08:00:46;;;;;;;2.10;0.68;;;;;;;14.14;41.78;93808.63;5030862;28;20090;-68
2022/04/07 08:03:11;;;;;;;0.80;0.10;;;;;;;14.24;40.44;93830.19;5031174;28;20022;-68
2022/04/07 08:05:37;;;;;;;1.33;0.30;;;;;;;14.70;39.95;93778.53;5021703;28;20105;-68
2022/04/07 08:08:03;;;;;;;1.67;0.60;;;;;;;14.96;38.84;93786.50;4993838;28;20052;-69
2022/04/07 08:10:28;;;;;;;1.27;0.20;;;;;;;14.59;39.19;93767.69;4993290;28;20497;-70
2022/04/07 08:12:53;;;;;;;2.13;0.30;;;;;;;14.79;38.80;93731.59;5011437;28;20034;-70
2022/04/07 08:15:19;;;;;;;0.75;0.13;;;;;;;15.10;38.80;93793.94;5011600;28;20030;-70
2022/04/07 08:17:45;;;;;;;4.75;0.40;;;;;;;14.90;38.65;93747.78;5011434;28;20475;-67
2022/04/07 08:20:11;;;;;;;0.10;0.10;;;;;;;14.39;39.26;93726.09;5015018;28;20071;-70
2022/04/07 08:22:36;;;;;;;2.85;0.20;;;;;;;14.89;38.07;93735.53;5013903;28;20061;-69
2022/04/07 08:25:03;;;;;;;0.32;0.20;;;;;;;15.00;38.28;93762.44;5031523;28;20099;-67
2022/04/07 08:27:28;;;;;;;2.38;0.28;;;;;;;15.17;38.19;93771.81;5031313;28;20069;-67
2022/04/07 08:29:54;;;;;;;0.63;0.30;;;;;;;14.45;38.60;93706.69;5030976;28;20033;-66
2022/04/07 08:32:19;;;;;;;0.68;0.10;;;;;;;13.37;39.71;93615.41;5030547;28;20568;-66
2022/04/07 08:34:46;;;;;;;1.50;0.30;;;;;;;15.42;38.12;93740.69;5012674;28;20470;-67
2022/04/07 08:37:11;;;;;;;0.30;0.20;;;;;;;14.95;37.86;93744.03;5010840;28;20042;-66
2022/04/07 08:39:36;;;;;;;0.30;0.20;;;;;;;13.99;37.99;93615.16;5011141;28;20026;-65
2022/04/07 08:42:04;;;;;;;0.47;0.30;;;;;;;14.00;38.06;93609.44;5010661;28;20091;-66
2022/04/07 08:44:33;;;;;;;0.57;0.10;;;;;;;13.95;39.06;93670.47;5011086;28;20030;-66
2022/04/07 08:46:59;;;;;;;1.30;0.20;;;;;;;15.76;37.08;93786.97;5011011;28;20030;-66
2022/04/07 08:49:30;;;;;;;0.10;0.10;;;;;;;15.21;37.76;93733.22;5011114;28;20091;-66
2022/04/07 08:51:55;;;;;;;0.82;0.20;;;;;;;15.11;36.51;93620.63;5026750;28;20029;-69
2022/04/07 08:54:21;;;;;;;3.13;0.80;;;;;;;14.49;37.92;93728.94;5030792;28;20526;-67
2022/04/07 08:56:48;;;;;;;1.27;0.28;;;;;;;15.41;37.41;93746.44;5013007;28;20425;-65
2022/04/07 08:59:14;;;;;;;2.00;0.38;;;;;;;16.63;35.80;93714.00;5030619;28;20029;-68
2022/04/07 09:01:40;;;;;;;2.17;0.35;;;;;;;16.47;34.81;93713.53;5030225;28;20040;-65
2022/04/07 09:04:05;;;;;;;1.50;0.43;;;;;;;16.65;34.63;93727.81;5030879;28;20025;-65
2022/04/07 09:06:34;;;;;;;1.25;0.30;;;;;;;15.19;36.18;93657.03;5012005;28;20038;-65
2022/04/07 09:09:10;;;;;;;1.17;0.20;;;;;;;15.21;35.86;93698.41;5032816;28;20660;-65
2022/04/07 09:11:36;;;;;;;0.60;0.30;;;;;;;15.44;35.89;93687.50;5016530;28;20083;-65
2022/04/07 09:14:01;;;;;;;0.30;0.20;;;;;;;14.93;36.14;93615.88;5034231;28;20029;-65
2022/04/07 09:16:28;;;;;;;1.30;0.10;;;;;;;16.49;33.89;93652.97;5034293;28;20053;-65
2022/04/07 09:18:54;;;;;;;0.15;0.13;;;;;;;15.74;35.67;93692.75;5034526;28;20030;-65
2022/04/07 09:21:24;;;;;;;1.27;0.20;;;;;;;16.15;34.85;93722.16;5033046;28;20029;-65
2022/04/07 09:23:55;;;;;;;1.85;0.20;;;;;;;15.68;35.33;93701.53;5034243;28;20030;-66
2022/04/07 09:26:21;;;;;;;0.73;0.30;;;;;;;17.27;33.23;93679.31;5034098;28;20021;-67
2022/04/07 09:28:47;;;;;;;0.80;0.25;;;;;;;16.47;32.94;93649.88;5033970;28;20040;-67
2022/04/07 09:31:14;;;;;;;3.63;0.17;;;;;;;16.37;34.35;93707.72;5015802;28;20104;-70
2022/04/07 09:33:39;;;;;;;1.88;0.57;;;;;;;15.97;35.29;93716.69;5033976;28;20022;-67
2022/04/07 09:36:20;;;;;;;0.60;0.30;;;;;;;16.16;34.79;93714.88;5033137;28;20029;-66
2022/04/07 09:38:50;;;;;;;2.25;0.17;;;;;;;16.46;33.98;93659.09;5033819;28;20026;-66
2022/04/07 09:41:17;;;;;;;3.35;0.40;;;;;;;16.17;33.78;93622.53;5033123;28;20017;-66
2022/04/07 09:43:48;;;;;;;1.00;0.30;;;;;;;16.14;34.57;93706.47;5015925;28;20033;-64
2022/04/07 09:46:18;;;;;;;0.93;0.30;;;;;;;16.51;33.59;93701.69;5033684;28;20025;-69
2022/04/07 09:49:00;;;;;;;2.30;0.30;;;;;;;17.37;32.84;93669.75;5033647;28;20650;-66
2022/04/07 09:51:29;;;;;;;3.25;0.20;;;;;;;16.27;33.60;93675.47;5032374;28;20385;-69
2022/04/07 09:53:56;;;;;;;1.42;0.28;;;;;;;16.31;33.95;93644.84;5015877;28;20053;-67
2022/04/07 09:56:27;;;;;;;1.40;0.20;;;;;;;16.40;32.62;93488.09;5033838;28;20032;-66
2022/04/07 09:58:53;;;;;;;1.30;0.30;;;;;;;17.17;32.72;93660.50;5033516;28;20048;-66
2022/04/07 10:01:19;;;;;;;1.10;0.20;;;;;;;16.96;32.57;93631.69;5033211;28;20079;-67
2022/04/07 10:03:47;;;;;;;0.10;0.10;;;;;;;16.31;32.29;93483.09;5033488;28;20026;-67
2022/04/07 10:06:14;;;;;;;4.60;0.40;;;;;;;16.40;33.47;93534.47;5032290;28;20028;-67
2022/04/07 10:08:41;;;;;;;1.08;0.20;;;;;;;15.83;33.84;93510.13;5033257;28;20197;-66
2022/04/07 10:11:08;;;;;;;0.80;0.35;;;;;;;16.04;34.36;93582.63;5032862;28;20029;-66
2022/04/07 10:13:34;;;;;;;3.13;0.30;;;;;;;17.33;32.09;93542.66;5015268;28;20029;-67
2022/04/07 10:16:00;;;;;;;3.70;0.20;;;;;;;16.78;32.51;93500.06;5033300;28;20029;-66
2022/04/07 10:18:39;;;;;;;1.23;0.40;;;;;;;18.45;31.76;93599.28;5033121;28;20029;-66
2022/04/07 10:21:06;;;;;;;1.83;0.20;;;;;;;16.40;32.50;93435.19;5030833;28;20030;-67
2022/04/07 10:23:57;;;;;;;0.55;0.20;;;;;;;18.44;31.66;93588.91;5015161;28;20036;-67
2022/04/07 10:26:25;;;;;;;0.38;0.20;;;;;;;18.67;30.00;93535.31;5032875;28;20029;-69
2022/04/07 10:28:55;;;;;;;0.20;0.20;;;;;;;17.72;32.12;93599.09;5032837;28;20025;-68
2022/04/07 10:31:22;;;;;;;0.63;0.20;;;;;;;17.81;31.68;93553.78;5032434;28;20075;-68
2022/04/07 10:33:48;;;;;;;0.82;0.13;;;;;;;17.98;31.83;93592.53;5032760;28;20025;-68
2022/04/07 10:36:21;;;;;;;0.45;0.20;;;;;;;17.92;32.10;93575.25;5011525;28;20049;-68
2022/04/07 10:38:49;;;;;;;0.75;0.20;;;;;;;18.14;31.70;93538.28;4995342;28;20052;-68
2022/04/07 10:41:37;;;;;;;1.05;0.20;;;;;;;19.25;30.19;93556.53;5012348;28;20022;-69
2022/04/07 10:44:13;;;;;;;0.30;0.22;;;;;;;18.12;31.15;93541.38;5004751;28;20042;-68
2022/04/07 10:46:39;;;;;;;0.40;0.35;;;;;;;18.65;30.19;93502.63;5013162;28;20034;-66
2022/04/07 10:49:07;;;;;;;1.02;0.30;;;;;;;19.84;31.16;93537.53;5012766;28;20356;-64
2022/04/07 10:51:52;;;;;;;5.53;0.77;;;;;;;20.61;28.16;93478.34;5016864;28;20036;-67
2022/04/07 10:54:17;;;;;;;1.52;0.30;;;;;;;19.73;31.68;93527.59;5032469;28;20084;-65
2022/04/07 10:56:48;;;;;;;0.45;0.10;;;;;;;20.47;29.63;93521.75;5032438;28;20025;-67
2022/04/07 10:59:17;;;;;;;3.72;0.38;;;;;;;21.15;28.46;93494.53;5014385;28;20027;-66
2022/04/07 11:01:42;;;;;;;1.80;0.25;;;;;;;20.43;27.61;93510.25;5032073;28;20104;-69
2022/04/07 11:04:23;;;;;;;1.85;0.30;;;;;;;19.19;29.09;93513.84;5014547;28;20533;-68
2022/04/07 11:07:16;;;;;;;0.65;0.47;;;;;;;20.13;27.68;93513.69;5013992;28;20029;-66
2022/04/07 11:10:03;;;;;;;1.27;0.25;;;;;;;18.93;29.18;93519.78;5014356;28;20029;-67
2022/04/07 11:12:33;;;;;;;4.07;0.20;;;;;;;18.07;30.63;93498.72;5031995;28;20026;-67
2022/04/07 11:15:01;;;;;;;2.00;0.20;;;;;;;17.95;31.11;93514.53;5032037;28;20033;-66
2022/04/07 11:17:37;;;;;;;4.28;0.32;;;;;;;17.23;31.68;93468.19;5032026;28;20025;-67
2022/04/07 11:20:13;;;;;;;4.95;0.20;;;;;;;18.22;30.98;93493.25;5031589;28;20036;-67
2022/04/07 11:22:58;;;;;;;0.30;0.22;;;;;;;18.19;31.16;93487.50;5031158;28;20032;-66
2022/04/07 11:25:34;;;;;;;0.38;0.20;;;;;;;17.77;31.27;93423.16;5032040;28;20022;-69
2022/04/07 11:28:15;;;;;;;1.70;0.40;;;;;;;18.97;30.25;93482.81;5031918;28;20505;-71
2022/04/07 11:30:46;;;;;;;0.88;0.30;;;;;;;18.26;31.59;93488.63;5031327;28;20029;-69
2022/04/07 11:33:18;;;;;;;0.80;0.20;;;;;;;18.75;30.71;93489.53;5031674;28;20060;-66